createdAt,value
2018-09-23T00:01:52.742Z,93900.33
2018-09-23T00:04:20.761Z,93901.73
2018-09-23T00:06:48.854Z,93901.98
2018-09-23T00:09:16.962Z,93896.85
2018-09-23T00:11:45.075Z,93895.89
2018-09-23T00:14:15.046Z,93896.85
2018-09-23T00:16:43.390Z,93897.17
2018-09-23T00:19:11.559Z,93893.14
2018-09-23T00:21:39.829Z,93891.83
2018-09-23T00:24:07.928Z,93889.33
2018-09-23T00:26:35.929Z,93888.98
2018-09-23T00:29:03.995Z,93885.98
2018-09-23T00:31:32.179Z,93876.11
2018-09-23T00:34:00.417Z,93868.50
2018-09-23T00:36:28.689Z,93866.95
2018-09-23T00:38:56.807Z,93860.66
2018-09-23T00:41:24.928Z,93859.34
2018-09-23T00:43:52.971Z,93849.00
2018-09-23T00:46:20.977Z,93852.42
2018-09-23T00:48:49.039Z,93849.47
2018-09-23T00:51:17.124Z,93850.62
2018-09-23T00:53:45.223Z,93846.06
2018-09-23T00:56:13.259Z,93854.95
2018-09-23T00:58:41.413Z,93863.63
2018-09-23T01:01:09.592Z,93866.02
2018-09-23T01:03:37.693Z,93862.20
2018-09-23T01:06:05.911Z,93858.63
2018-09-23T01:08:34.025Z,93860.84
2018-09-23T01:11:02.088Z,93862.73
2018-09-23T01:13:30.307Z,93855.98
2018-09-23T01:15:58.404Z,93857.27
2018-09-23T01:18:26.460Z,93862.25
2018-09-23T01:20:54.531Z,93863.73
2018-09-23T01:23:22.577Z,93859.55
2018-09-23T01:25:50.733Z,93856.44
2018-09-23T01:28:18.805Z,93852.47
2018-09-23T01:30:46.812Z,93862.20
2018-09-23T01:33:14.895Z,93861.59
2018-09-23T01:35:42.967Z,93863.00
2018-09-23T01:38:11.226Z,93867.72
2018-09-23T01:40:39.593Z,93867.11
2018-09-23T01:43:07.817Z,93871.41
2018-09-23T01:45:36.120Z,93871.13
2018-09-23T01:48:04.170Z,93868.52
2018-09-23T01:50:32.184Z,93873.30
2018-09-23T01:53:00.301Z,93877.22
2018-09-23T01:55:28.381Z,93884.58
2018-09-23T01:57:56.393Z,93886.95
2018-09-23T02:00:24.529Z,93890.19
2018-09-23T02:02:52.665Z,93890.46
2018-09-23T02:05:20.722Z,93880.24
2018-09-23T02:07:48.797Z,93873.44
2018-09-23T02:10:16.843Z,93879.86
2018-09-23T02:12:44.985Z,93873.09
2018-09-23T02:15:13.095Z,93865.19
2018-09-23T02:17:41.228Z,93872.77
2018-09-23T02:20:09.444Z,93870.34
2018-09-23T02:22:37.763Z,93866.73
2018-09-23T02:25:05.963Z,93863.22
2018-09-23T02:27:34.014Z,93861.16
2018-09-23T02:30:02.073Z,93863.39
2018-09-23T02:32:30.302Z,93869.06
2018-09-23T02:34:58.364Z,93868.06
2018-09-23T02:37:26.556Z,93865.20
2018-09-23T02:39:54.678Z,93869.77
2018-09-23T02:42:22.765Z,93869.33
2018-09-23T02:44:50.870Z,93870.28
2018-09-23T02:47:18.897Z,93865.47
2018-09-23T02:49:47.011Z,93871.50
2018-09-23T02:52:15.124Z,93873.73
2018-09-23T02:54:43.243Z,93866.86
2018-09-23T02:57:11.651Z,93870.16
2018-09-23T02:59:39.766Z,93867.88
2018-09-23T03:02:07.808Z,93864.78
2018-09-23T03:04:35.971Z,93865.42
2018-09-23T03:07:04.104Z,93868.30
2018-09-23T03:09:32.230Z,93861.42
2018-09-23T03:12:00.408Z,93867.42
2018-09-23T03:14:28.541Z,93874.09
2018-09-23T03:16:56.606Z,93869.30
2018-09-23T03:19:25.203Z,93870.23
2018-09-23T03:21:53.377Z,93867.22
2018-09-23T03:24:21.476Z,93869.83
2018-09-23T03:27:02.724Z,93877.41
2018-09-23T03:29:31.541Z,93880.47
2018-09-23T03:31:59.737Z,93885.84
2018-09-23T03:34:28.216Z,93891.92
2018-09-23T03:36:56.949Z,93883.13
2018-09-23T03:39:24.950Z,93888.01
2018-09-23T03:41:53.049Z,93879.22
2018-09-23T03:44:21.579Z,93883.36
2018-09-23T03:46:49.633Z,93886.90
2018-09-23T03:49:17.763Z,93885.79
2018-09-23T03:51:46.031Z,93886.64
2018-09-23T03:54:14.295Z,93887.22
2018-09-23T03:56:44.338Z,93888.20
2018-09-23T03:59:13.009Z,93884.13
2018-09-23T04:01:41.114Z,93886.84
2018-09-23T04:04:09.801Z,93885.92
2018-09-23T04:06:37.833Z,93881.72
2018-09-23T05:03:09.948Z,93922.16
2018-09-23T05:05:38.421Z,93923.59
2018-09-23T05:08:06.853Z,93926.72
2018-09-23T05:10:35.703Z,93933.54
2018-09-23T05:13:04.305Z,93934.87
2018-09-23T05:15:32.628Z,93927.57
2018-09-23T05:18:02.066Z,93932.81
2018-09-23T05:20:30.220Z,93932.20
2018-09-23T05:22:58.521Z,93930.84
2018-09-23T05:25:26.957Z,93931.48
2018-09-23T05:27:55.195Z,93937.55
2018-09-23T05:30:23.601Z,93941.05
2018-09-23T05:32:52.983Z,93937.77
2018-09-23T05:35:22.143Z,93941.37
2018-09-23T05:37:50.779Z,93946.30
2018-09-23T05:40:19.623Z,93950.42
2018-09-23T05:42:47.886Z,93963.31
2018-09-23T05:45:27.063Z,93967.62
2018-09-23T05:47:56.357Z,93964.66
2018-09-23T05:50:26.603Z,93959.92
2018-09-23T05:52:56.389Z,93956.93
2018-09-23T05:55:36.052Z,93955.72
2018-09-23T05:58:05.857Z,93956.31
2018-09-23T06:00:39.212Z,93958.49
2018-09-23T06:03:08.829Z,93959.17
2018-09-23T06:05:38.379Z,93959.83
2018-09-23T06:08:07.957Z,93960.06
2018-09-23T06:10:36.675Z,93972.15
2018-09-23T06:13:06.941Z,93965.88
2018-09-23T06:15:35.583Z,93964.86
2018-09-23T06:18:06.269Z,93966.02
2018-09-23T06:20:36.029Z,93975.34
2018-09-23T06:23:07.034Z,93970.21
2018-09-23T06:25:37.607Z,93977.62
2018-09-23T06:28:06.182Z,93978.55
2018-09-23T06:30:35.558Z,93985.63
2018-09-23T06:33:08.602Z,93978.54
2018-09-23T06:35:38.113Z,93975.81
2018-09-23T06:38:06.788Z,93989.51
2018-09-23T06:40:38.361Z,93984.56
2018-09-23T06:43:11.138Z,93983.68
2018-09-23T06:45:40.324Z,93993.56
2018-09-23T06:48:09.616Z,93993.66
2018-09-23T06:50:41.760Z,94001.02
2018-09-23T06:53:10.591Z,94002.94
2018-09-23T06:55:39.588Z,93999.58
2018-09-23T06:58:10.347Z,94005.36
2018-09-23T07:00:40.002Z,94004.21
2018-09-23T07:03:10.307Z,94001.48
2018-09-23T07:05:44.740Z,94006.97
2018-09-23T07:08:15.414Z,94009.92
2018-09-23T07:10:45.202Z,94008.28
2018-09-23T07:13:14.123Z,94006.03
2018-09-23T07:15:42.510Z,94012.83
2018-09-23T07:18:11.139Z,94005.95
2018-09-23T07:20:39.834Z,94011.83
2018-09-23T07:23:09.216Z,94011.95
2018-09-23T07:25:38.382Z,94012.63
2018-09-23T07:28:07.275Z,94007.47
2018-09-23T07:30:35.988Z,94002.05
2018-09-23T07:33:05.544Z,94009.46
2018-09-23T07:35:34.816Z,93999.91
2018-09-23T07:38:03.809Z,93999.56
2018-09-23T07:40:33.271Z,93993.17
2018-09-23T07:43:11.221Z,93996.23
2018-09-23T07:45:41.885Z,93983.73
2018-09-23T07:48:13.510Z,93990.95
2018-09-23T07:50:42.457Z,93992.73
2018-09-23T07:53:18.439Z,93995.93
2018-09-23T07:55:47.699Z,93993.61
2018-09-23T07:58:20.088Z,93995.34
2018-09-23T08:00:53.292Z,93996.66
2018-09-23T08:03:25.302Z,94004.67
2018-09-23T08:05:56.667Z,94005.05
2018-09-23T08:08:25.705Z,94005.81
2018-09-23T08:10:55.761Z,93997.89
2018-09-23T08:13:25.136Z,94004.48
2018-09-23T08:15:53.817Z,93999.91
2018-09-23T08:18:23.235Z,93988.94
2018-09-23T08:20:53.568Z,93986.97
2018-09-23T08:23:22.498Z,93990.36
2018-09-23T08:25:51.188Z,93990.23
2018-09-23T08:28:20.663Z,93993.55
2018-09-23T08:30:49.802Z,93998.03
2018-09-23T08:33:18.513Z,93992.72
2018-09-23T08:35:47.497Z,93996.50
2018-09-23T08:38:16.143Z,93987.78
2018-09-23T08:40:44.936Z,93986.80
2018-09-23T08:43:14.401Z,93982.91
2018-09-23T08:45:43.479Z,93975.20
2018-09-23T08:48:14.383Z,93983.89
2018-09-23T08:50:45.796Z,93979.24
2018-09-23T08:53:15.260Z,93983.27
2018-09-23T08:55:44.323Z,93978.13
2018-09-23T08:58:14.213Z,93973.56
2018-09-23T09:00:43.274Z,93969.02
2018-09-23T09:03:11.827Z,93968.80
2018-09-23T09:05:42.233Z,93977.64
2018-09-23T09:08:14.399Z,93973.48
2018-09-23T09:10:43.865Z,93971.67
2018-09-23T09:13:12.826Z,93965.36
2018-09-23T09:15:43.048Z,93963.14
2018-09-23T09:18:13.246Z,93962.12
2018-09-23T09:20:42.112Z,93963.28
2018-09-23T09:23:11.081Z,93960.00
2018-09-23T09:25:40.070Z,93954.97
2018-09-23T09:28:08.800Z,93958.45
2018-09-23T09:30:38.218Z,93958.10
2018-09-23T09:33:07.067Z,93955.57
2018-09-23T09:35:36.143Z,93955.38
2018-09-23T09:38:05.988Z,93948.33
2018-09-23T09:40:34.692Z,93943.33
2018-09-23T09:43:03.577Z,93946.97
2018-09-23T09:45:32.739Z,93953.17
2018-09-23T09:48:06.143Z,93946.55
2018-09-23T09:50:36.356Z,93949.87
2018-09-23T09:53:05.676Z,93939.86
2018-09-23T09:55:37.023Z,93940.67
2018-09-23T09:58:14.437Z,93945.60
2018-09-23T10:00:50.802Z,93940.77
2018-09-23T10:03:22.557Z,93936.34
2018-09-23T10:06:02.793Z,93936.65
2018-09-23T10:08:43.571Z,93932.41
2018-09-23T10:11:16.454Z,93935.34
2018-09-23T10:13:45.814Z,93934.36
2018-09-23T10:16:19.471Z,93931.65
2018-09-23T10:18:48.455Z,93933.13
2018-09-23T10:21:17.764Z,93931.82
2018-09-23T10:23:47.861Z,93930.02
2018-09-23T10:26:18.657Z,93933.36
2018-09-23T10:28:47.821Z,93926.23
2018-09-23T10:31:18.904Z,93928.39
2018-09-23T10:33:48.087Z,93926.18
2018-09-23T10:36:18.044Z,93913.49
2018-09-23T10:38:46.901Z,93913.20
2018-09-23T10:41:16.197Z,93912.20
2018-09-23T10:43:45.881Z,93914.67
2018-09-23T10:46:17.433Z,93908.50
2018-09-23T10:48:47.822Z,93910.59
2018-09-23T10:51:16.848Z,93904.38
2018-09-23T10:53:46.714Z,93897.82
2018-09-23T10:56:16.071Z,93896.57
2018-09-23T10:58:45.034Z,93892.78
2018-09-23T11:01:14.938Z,93886.28
2018-09-23T11:04:02.173Z,93882.36
2018-09-23T11:06:33.312Z,93878.34
2018-09-23T11:09:01.878Z,93884.30
2018-09-23T11:11:31.290Z,93867.43
2018-09-23T11:14:02.011Z,93866.47
2018-09-23T11:16:31.369Z,93864.38
2018-09-23T11:19:03.643Z,93859.22
2018-09-23T11:21:33.466Z,93856.19
2018-09-23T11:24:04.030Z,93850.48
2018-09-23T11:26:34.154Z,93844.55
2018-09-23T11:29:03.441Z,93845.55
2018-09-23T11:31:32.194Z,93841.26
2018-09-23T11:34:01.212Z,93832.66
2018-09-23T11:36:30.350Z,93831.44
2018-09-23T11:38:59.439Z,93831.02
2018-09-23T11:41:28.970Z,93825.30
2018-09-23T11:43:58.286Z,93823.79
2018-09-23T11:46:27.538Z,93815.97
2018-09-23T11:48:58.392Z,93811.17
2018-09-23T11:51:28.296Z,93820.67
2018-09-23T11:53:59.134Z,93819.03
2018-09-23T11:56:28.658Z,93816.16
2018-09-23T11:58:58.059Z,93808.08
2018-09-23T12:01:27.340Z,93807.58
2018-09-23T12:03:55.900Z,93803.94
2018-09-23T12:06:25.516Z,93800.64
2018-09-23T12:08:57.355Z,93802.79
2018-09-23T12:11:28.626Z,93799.65
2018-09-23T12:13:57.502Z,93799.56
2018-09-23T12:16:26.407Z,93798.44
2018-09-23T12:18:56.009Z,93795.13
2018-09-23T12:21:24.610Z,93789.47
2018-09-23T12:23:55.912Z,93794.14
2018-09-23T12:26:25.671Z,93792.20
2018-09-23T12:28:59.540Z,93785.52
2018-09-23T12:31:28.822Z,93784.67
2018-09-23T12:34:00.636Z,93780.56
2018-09-23T12:36:30.198Z,93775.30
2018-09-23T12:38:59.902Z,93777.77
2018-09-23T12:41:30.119Z,93774.09
2018-09-23T12:44:05.084Z,93769.01
2018-09-23T12:46:37.911Z,93766.22
2018-09-23T12:49:14.864Z,93757.68
2018-09-23T12:51:48.691Z,93765.02
2018-09-23T12:54:18.320Z,93758.83
2018-09-23T12:56:49.133Z,93758.20
2018-09-23T12:59:19.761Z,93755.33
2018-09-23T13:01:49.039Z,93759.33
2018-09-23T13:04:19.060Z,93754.81
2018-09-23T13:06:47.994Z,93747.11
2018-09-23T13:09:18.051Z,93749.67
2018-09-23T13:11:47.206Z,93743.27
2018-09-23T13:14:16.198Z,93749.25
2018-09-23T13:16:45.160Z,93746.95
2018-09-23T13:19:14.147Z,93741.54
2018-09-23T13:21:43.254Z,93738.97
2018-09-23T13:24:12.124Z,93732.68
2018-09-23T13:26:41.135Z,93729.16
2018-09-23T13:29:10.047Z,93729.75
2018-09-23T13:31:38.746Z,93736.16
2018-09-23T13:34:07.578Z,93732.25
2018-09-23T13:36:36.286Z,93731.71
2018-09-23T13:39:05.703Z,93736.44
2018-09-23T13:41:39.337Z,93729.93
2018-09-23T13:44:13.428Z,93730.16
2018-09-23T13:46:46.422Z,93725.50
2018-09-23T13:49:16.896Z,93721.92
2018-09-23T13:52:00.295Z,93717.91
2018-09-23T13:54:30.409Z,93716.72
2018-09-23T13:56:59.119Z,93716.38
2018-09-23T13:59:27.917Z,93714.02
2018-09-23T14:01:57.458Z,93710.73
2018-09-23T14:04:27.097Z,93713.70
2018-09-23T14:06:56.370Z,93716.18
2018-09-23T14:09:25.576Z,93711.97
2018-09-23T14:11:54.303Z,93710.31
2018-09-23T14:14:24.825Z,93709.46
2018-09-23T14:16:54.356Z,93711.42
2018-09-23T14:19:26.871Z,93712.33
2018-09-23T14:21:57.858Z,93706.19
2018-09-23T14:24:27.255Z,93703.23
2018-09-23T14:26:57.055Z,93702.47
2018-09-23T14:29:27.012Z,93700.98
2018-09-23T14:31:56.086Z,93700.73
2018-09-23T14:34:25.266Z,93697.54
2018-09-23T14:36:54.185Z,93696.30
2018-09-23T14:39:22.923Z,93696.21
2018-09-23T14:41:55.739Z,93703.27
2018-09-23T14:44:24.792Z,93695.23
2018-09-23T14:48:24.627Z,93697.42
2018-09-23T14:50:53.846Z,93700.34
2018-09-23T14:53:22.574Z,93695.13
2018-09-23T14:55:53.366Z,93698.32
2018-09-23T14:58:22.233Z,93695.54
2018-09-23T15:00:51.093Z,93697.50
2018-09-23T15:03:21.781Z,93693.38
2018-09-23T15:05:55.514Z,93695.41
2018-09-23T15:08:31.247Z,93699.66
2018-09-23T15:11:02.719Z,93693.91
2018-09-23T15:13:33.303Z,93694.91
2018-09-23T15:16:02.682Z,93695.55
2018-09-23T15:18:32.756Z,93698.28
2018-09-23T15:21:01.366Z,93702.75
2018-09-23T15:23:30.372Z,93701.29
2018-09-23T15:26:01.392Z,93700.73
2018-09-23T15:28:30.015Z,93702.39
2018-09-23T15:30:59.136Z,93699.27
2018-09-23T15:33:28.089Z,93698.63
2018-09-23T15:35:59.964Z,93701.38
2018-09-23T15:38:29.763Z,93698.25
2018-09-23T15:40:58.770Z,93697.81
2018-09-23T15:43:27.429Z,93699.17
2018-09-23T15:45:56.598Z,93695.03
2018-09-23T15:48:25.114Z,93694.91
2018-09-23T15:50:53.535Z,93695.92
2018-09-23T15:53:22.019Z,93691.98
2018-09-23T15:55:50.567Z,93692.35
2018-09-23T15:58:19.625Z,93700.34
2018-09-23T16:00:47.996Z,93704.05
2018-09-23T16:03:16.444Z,93699.25
2018-09-23T16:05:44.978Z,93702.91
2018-09-23T16:08:13.639Z,93703.07
2018-09-23T16:10:42.092Z,93705.89
2018-09-23T16:13:10.896Z,93706.05
2018-09-23T16:15:39.361Z,93708.07
2018-09-23T16:18:07.684Z,93712.19
2018-09-23T16:20:36.205Z,93716.17
2018-09-23T16:23:04.712Z,93716.02
2018-09-23T16:25:33.367Z,93720.48
2018-09-23T16:28:02.263Z,93722.63
2018-09-23T16:30:30.730Z,93725.22
2018-09-23T16:32:59.452Z,93723.55
2018-09-23T16:35:27.918Z,93724.55
2018-09-23T16:37:56.292Z,93721.50
2018-09-23T16:40:24.639Z,93712.59
2018-09-23T16:42:52.972Z,93719.00
2018-09-23T16:45:21.271Z,93717.49
2018-09-23T16:47:50.056Z,93720.28
2018-09-23T16:50:18.314Z,93714.95
2018-09-23T16:52:46.703Z,93718.35
2018-09-23T16:55:14.927Z,93724.25
2018-09-23T16:57:44.274Z,93720.41
2018-09-23T17:00:12.924Z,93732.11
2018-09-23T17:02:41.346Z,93734.25
2018-09-23T17:05:09.630Z,93724.45
2018-09-23T17:07:37.840Z,93740.95
2018-09-23T17:10:06.515Z,93740.23
2018-09-23T17:12:35.316Z,93740.52
2018-09-23T17:15:03.631Z,93745.57
2018-09-23T17:17:32.204Z,93747.58
2018-09-23T17:20:01.413Z,93754.69
2018-09-23T17:22:29.985Z,93751.48
2018-09-23T17:24:58.554Z,93745.44
2018-09-23T17:27:27.046Z,93755.15
2018-09-23T17:29:55.847Z,93750.09
2018-09-23T17:32:24.173Z,93746.64
2018-09-23T17:34:52.546Z,93746.92
2018-09-23T17:37:21.323Z,93752.67
2018-09-23T17:39:50.400Z,93754.42
2018-09-23T17:42:23.170Z,93758.09
2018-09-23T17:44:51.891Z,93758.59
2018-09-23T17:47:20.408Z,93756.31
2018-09-23T17:49:49.106Z,93754.74
2018-09-23T17:52:18.082Z,93763.45
2018-09-23T17:54:46.533Z,93759.05
2018-09-23T17:57:14.902Z,93763.83
2018-09-23T17:59:43.352Z,93764.43
2018-09-23T18:02:11.885Z,93768.84
2018-09-23T18:04:40.687Z,93769.55
2018-09-23T18:07:09.576Z,93763.69
2018-09-23T18:09:39.535Z,93765.29
2018-09-23T18:12:09.560Z,93766.66
2018-09-23T18:14:38.604Z,93765.92
2018-09-23T18:17:08.548Z,93766.89
2018-09-23T18:19:40.098Z,93764.02
2018-09-23T18:22:10.475Z,93764.98
2018-09-23T18:24:39.772Z,93763.92
2018-09-23T18:27:10.629Z,93763.84
2018-09-23T18:29:39.628Z,93763.19
2018-09-23T18:32:08.237Z,93762.86
2018-09-23T18:34:36.811Z,93764.13
2018-09-23T18:37:05.702Z,93763.38
2018-09-23T18:39:35.046Z,93768.64
2018-09-23T18:42:03.423Z,93766.58
2018-09-23T18:44:31.703Z,93764.30
2018-09-23T18:46:59.917Z,93768.13
2018-09-23T18:49:28.179Z,93764.19
2018-09-23T18:51:56.513Z,93769.85
2018-09-23T18:54:30.284Z,93760.84
2018-09-23T18:56:58.631Z,93754.82
2018-09-23T18:59:26.937Z,93754.62
2018-09-23T19:01:55.251Z,93756.34
2018-09-23T19:04:24.901Z,93760.91
2018-09-23T19:06:53.468Z,93754.62
2018-09-23T19:09:22.009Z,93759.09
2018-09-23T19:11:50.388Z,93758.96
2018-09-23T19:14:18.804Z,93755.77
2018-09-23T19:16:47.377Z,93752.17
2018-09-23T19:19:15.941Z,93756.61
2018-09-23T19:21:44.438Z,93751.57
2018-09-23T19:24:13.396Z,93748.94
2018-09-23T19:26:42.036Z,93744.13
2018-09-23T19:29:10.487Z,93752.14
2018-09-23T19:31:38.909Z,93745.98
2018-09-23T19:34:07.872Z,93748.06
2018-09-23T19:36:36.885Z,93745.93
2018-09-23T19:39:07.505Z,93751.81
2018-09-23T19:41:36.455Z,93754.62
2018-09-23T19:44:05.127Z,93749.98
2018-09-23T19:46:33.441Z,93751.14
2018-09-23T19:49:01.629Z,93751.60
2018-09-23T19:51:30.010Z,93747.25
2018-09-23T19:53:58.115Z,93748.82
2018-09-23T19:56:26.402Z,93746.37
2018-09-23T19:58:54.616Z,93746.08
2018-09-23T20:01:23.499Z,93751.25
2018-09-23T20:03:52.190Z,93751.25
2018-09-23T20:06:20.473Z,93741.62
2018-09-23T20:08:48.729Z,93743.05
2018-09-23T20:11:16.987Z,93741.74
2018-09-23T20:13:45.712Z,93732.34
2018-09-23T20:16:14.257Z,93738.50
2018-09-23T20:18:42.526Z,93736.04
2018-09-23T20:21:10.783Z,93735.14
2018-09-23T20:23:39.075Z,93732.55
2018-09-23T20:26:07.422Z,93738.42
2018-09-23T20:28:35.882Z,93737.27
2018-09-23T20:31:04.457Z,93734.16
2018-09-23T20:33:33.226Z,93731.08
2018-09-23T20:36:01.679Z,93732.77
2018-09-23T20:38:29.861Z,93725.01
2018-09-23T20:40:58.682Z,93727.09
2018-09-23T20:43:26.925Z,93724.84
2018-09-23T20:45:55.596Z,93720.69
2018-09-23T20:48:24.568Z,93724.08
2018-09-23T20:50:53.876Z,93720.87
2018-09-23T20:53:22.102Z,93715.75
2018-09-23T20:55:51.121Z,93716.58
2018-09-23T20:58:19.333Z,93716.56
2018-09-23T21:00:48.000Z,93717.20
2018-09-23T21:03:16.213Z,93716.75
2018-09-23T21:05:44.847Z,93711.17
2018-09-23T21:08:13.420Z,93714.47
2018-09-23T21:10:41.692Z,93710.84
2018-09-23T21:13:09.935Z,93705.84
2018-09-23T21:15:38.629Z,93704.59
2018-09-23T21:18:07.643Z,93702.21
2018-09-23T21:20:35.950Z,93702.73
2018-09-23T21:23:04.184Z,93698.06
2018-09-23T21:25:32.278Z,93693.20
2018-09-23T21:28:00.534Z,93689.52
2018-09-23T21:30:28.649Z,93684.20
2018-09-23T21:32:56.928Z,93686.95
2018-09-23T21:35:25.018Z,93684.95
2018-09-23T21:37:53.440Z,93688.77
2018-09-23T21:40:21.680Z,93682.55
2018-09-23T21:42:49.910Z,93685.78
2018-09-23T21:45:18.004Z,93684.86
2018-09-23T21:47:46.148Z,93683.18
2018-09-23T21:50:14.599Z,93683.08
2018-09-23T21:52:43.132Z,93681.06
2018-09-23T21:55:11.317Z,93679.53
2018-09-23T21:57:39.408Z,93678.95
2018-09-23T22:00:08.571Z,93676.31
2018-09-23T22:02:36.699Z,93668.47
2018-09-23T22:05:04.843Z,93670.86
2018-09-23T22:07:33.001Z,93670.30
2018-09-23T22:10:01.174Z,93671.85
2018-09-23T22:12:29.255Z,93667.09
2018-09-23T22:14:57.318Z,93674.97
2018-09-23T22:17:25.482Z,93667.14
2018-09-23T22:19:53.507Z,93663.34
2018-09-23T22:22:21.648Z,93665.95
2018-09-23T22:24:49.888Z,93659.19
2018-09-23T22:27:18.096Z,93655.60
2018-09-23T22:29:46.333Z,93647.04
2018-09-23T22:32:14.556Z,93639.08
2018-09-23T22:34:42.661Z,93643.01
2018-09-23T22:37:10.698Z,93641.92
2018-09-23T22:39:38.835Z,93635.05
2018-09-23T22:42:07.344Z,93640.74
2018-09-23T22:44:35.485Z,93639.92
2018-09-23T22:47:03.668Z,93639.20
2018-09-23T22:49:31.870Z,93635.29
2018-09-23T22:52:00.057Z,93639.82
2018-09-23T22:54:28.153Z,93638.52
2018-09-23T22:56:56.222Z,93636.26
2018-09-23T22:59:24.406Z,93634.59
2018-09-23T23:01:52.511Z,93637.33
2018-09-23T23:04:20.719Z,93635.20
2018-09-23T23:06:48.865Z,93632.55
2018-09-23T23:09:16.955Z,93627.91
2018-09-23T23:11:45.103Z,93630.03
2018-09-23T23:14:13.209Z,93629.33
2018-09-23T23:16:41.326Z,93627.90
2018-09-23T23:19:09.540Z,93632.20
2018-09-23T23:21:37.899Z,93624.58
2018-09-23T23:24:06.049Z,93625.05
2018-09-23T23:26:34.170Z,93620.30
2018-09-23T23:29:02.305Z,93610.77
2018-09-23T23:31:30.343Z,93616.38
2018-09-23T23:33:58.450Z,93612.79
2018-09-23T23:36:26.820Z,93605.16
2018-09-23T23:38:54.868Z,93606.36
2018-09-23T23:41:22.874Z,93596.86
2018-09-23T23:43:50.996Z,93597.45
2018-09-23T23:46:19.177Z,93599.59
2018-09-23T23:48:47.270Z,93595.77
2018-09-23T23:51:15.385Z,93598.50
2018-09-23T23:53:43.557Z,93594.11
2018-09-23T23:56:11.828Z,93587.80
2018-09-23T23:58:39.839Z,93589.47
